Terminal Aerodrome Forecast
Issued by NWS Goodland, KS

Home | Current Version | Previous Version | Text Only | Print | Product List | Glossary On
Versions: 1 2 3 4 5 6 7 8 9 10 11 12 13 14 15 16
000
FTUS43 KGLD 261132
TAFGLD
TAF
KGLD 261132Z 2612/2712 VRB04KT 6SM BR FEW002 SCT250
      TEMPO 2612/2615 3SM BR SCT002
     FM261600 12007KT P6SM SCT250
     FM262200 13012G17KT P6SM VCTS SCT060CB BKN150
      TEMPO 2623/2703 01020G30KT 5SM -TSRA BR BKN060CB
     FM270400 08010KT P6SM BKN080
     FM270900 17009KT 6SM BR OVC015=

USA.gov is the U.S. government's official web portal to all federal, state and local government web resources and services.